sensor_id;sensor_type;location;lat;lon;timestamp;temperature;humidity
21335;DHT22;69435;52.670;13.544;2023-07-31T00:00:09;18.00;67.00
21335;DHT22;69435;52.670;13.544;2023-07-31T00:02:56;17.90;67.10
21335;DHT22;69435;52.670;13.544;2023-07-31T00:05:42;17.90;67.30
21335;DHT22;69435;52.670;13.544;2023-07-31T00:08:27;17.90;67.40
21335;DHT22;69435;52.670;13.544;2023-07-31T00:11:13;17.90;67.20
21335;DHT22;69435;52.670;13.544;2023-07-31T00:13:59;17.90;67.30
21335;DHT22;69435;52.670;13.544;2023-07-31T00:16:45;17.90;67.20
21335;DHT22;69435;52.670;13.544;2023-07-31T00:19:31;17.80;67.00
21335;DHT22;69435;52.670;13.544;2023-07-31T00:22:17;17.90;66.90
21335;DHT22;69435;52.670;13.544;2023-07-31T00:25:03;17.80;66.70
21335;DHT22;69435;52.670;13.544;2023-07-31T00:27:51;17.80;66.70
21335;DHT22;69435;52.670;13.544;2023-07-31T00:30:38;17.80;66.60
21335;DHT22;69435;52.670;13.544;2023-07-31T00:33:23;17.80;66.50
21335;DHT22;69435;52.670;13.544;2023-07-31T00:36:09;17.80;66.50
21335;DHT22;69435;52.670;13.544;2023-07-31T00:38:55;17.80;66.50
21335;DHT22;69435;52.670;13.544;2023-07-31T00:41:41;17.70;66.50
21335;DHT22;69435;52.670;13.544;2023-07-31T00:44:27;17.70;66.70
21335;DHT22;69435;52.670;13.544;2023-07-31T00:47:13;17.70;66.70
21335;DHT22;69435;52.670;13.544;2023-07-31T00:49:59;17.70;66.70
21335;DHT22;69435;52.670;13.544;2023-07-31T00:52:46;17.70;66.80
21335;DHT22;69435;52.670;13.544;2023-07-31T00:55:32;17.70;66.80
21335;DHT22;69435;52.670;13.544;2023-07-31T00:58:18;17.70;66.90
21335;DHT22;69435;52.670;13.544;2023-07-31T01:01:04;17.70;67.00
21335;DHT22;69435;52.670;13.544;2023-07-31T01:03:50;17.80;67.00
21335;DHT22;69435;52.670;13.544;2023-07-31T01:10:07;17.80;66.70
21335;DHT22;69435;52.670;13.544;2023-07-31T01:12:56;17.80;66.70
21335;DHT22;69435;52.670;13.544;2023-07-31T01:15:43;17.80;66.70
21335;DHT22;69435;52.670;13.544;2023-07-31T01:18:29;17.80;66.70
21335;DHT22;69435;52.670;13.544;2023-07-31T01:24:55;17.90;66.80
21335;DHT22;69435;52.670;13.544;2023-07-31T01:28:00;17.90;66.90
21335;DHT22;69435;52.670;13.544;2023-07-31T01:30:50;17.90;67.10
21335;DHT22;69435;52.670;13.544;2023-07-31T01:33:36;18.00;67.10
21335;DHT22;69435;52.670;13.544;2023-07-31T01:36:23;18.00;66.90
21335;DHT22;69435;52.670;13.544;2023-07-31T01:39:10;18.00;66.70
21335;DHT22;69435;52.670;13.544;2023-07-31T01:41:56;18.10;66.80
21335;DHT22;69435;52.670;13.544;2023-07-31T01:44:42;18.10;66.50
21335;DHT22;69435;52.670;13.544;2023-07-31T01:47:28;18.10;66.30
21335;DHT22;69435;52.670;13.544;2023-07-31T01:50:14;18.10;66.20
21335;DHT22;69435;52.670;13.544;2023-07-31T01:53:00;18.10;66.20
21335;DHT22;69435;52.670;13.544;2023-07-31T01:55:46;18.10;66.40
21335;DHT22;69435;52.670;13.544;2023-07-31T01:58:32;18.00;66.50
21335;DHT22;69435;52.670;13.544;2023-07-31T02:01:18;18.00;66.80
21335;DHT22;69435;52.670;13.544;2023-07-31T02:04:04;17.90;67.10
21335;DHT22;69435;52.670;13.544;2023-07-31T02:06:50;17.90;67.30
21335;DHT22;69435;52.670;13.544;2023-07-31T02:09:36;17.90;67.50
21335;DHT22;69435;52.670;13.544;2023-07-31T02:12:22;17.90;67.70
21335;DHT22;69435;52.670;13.544;2023-07-31T02:15:08;17.90;67.80
21335;DHT22;69435;52.670;13.544;2023-07-31T02:17:55;17.90;67.90
21335;DHT22;69435;52.670;13.544;2023-07-31T02:20:41;18.00;67.90
21335;DHT22;69435;52.670;13.544;2023-07-31T02:23:28;18.00;67.90
21335;DHT22;69435;52.670;13.544;2023-07-31T02:26:14;18.00;67.80
21335;DHT22;69435;52.670;13.544;2023-07-31T02:29:00;18.00;67.80
21335;DHT22;69435;52.670;13.544;2023-07-31T02:31:46;18.10;67.80
21335;DHT22;69435;52.670;13.544;2023-07-31T02:34:34;18.10;67.80
21335;DHT22;69435;52.670;13.544;2023-07-31T02:37:20;18.10;67.90
21335;DHT22;69435;52.670;13.544;2023-07-31T02:40:06;18.20;68.00
21335;DHT22;69435;52.670;13.544;2023-07-31T02:42:52;18.20;68.10
21335;DHT22;69435;52.670;13.544;2023-07-31T02:45:38;18.30;68.40
21335;DHT22;69435;52.670;13.544;2023-07-31T02:48:24;18.30;68.30
21335;DHT22;69435;52.670;13.544;2023-07-31T02:51:11;18.40;68.20
21335;DHT22;69435;52.670;13.544;2023-07-31T02:53:57;18.40;68.10
21335;DHT22;69435;52.670;13.544;2023-07-31T02:56:43;18.40;68.20
21335;DHT22;69435;52.670;13.544;2023-07-31T02:59:28;18.40;68.20
21335;DHT22;69435;52.670;13.544;2023-07-31T03:02:15;18.50;68.40
21335;DHT22;69435;52.670;13.544;2023-07-31T03:05:01;18.50;68.50
21335;DHT22;69435;52.670;13.544;2023-07-31T03:07:47;18.50;68.30
21335;DHT22;69435;52.670;13.544;2023-07-31T03:10:33;18.50;68.20
21335;DHT22;69435;52.670;13.544;2023-07-31T03:13:19;18.50;68.00
21335;DHT22;69435;52.670;13.544;2023-07-31T03:16:05;18.60;67.90
21335;DHT22;69435;52.670;13.544;2023-07-31T03:18:52;18.50;68.00
21335;DHT22;69435;52.670;13.544;2023-07-31T03:21:39;18.60;68.00
21335;DHT22;69435;52.670;13.544;2023-07-31T03:24:25;18.60;68.20
21335;DHT22;69435;52.670;13.544;2023-07-31T03:27:11;18.60;68.20
21335;DHT22;69435;52.670;13.544;2023-07-31T03:29:59;18.60;68.20
21335;DHT22;69435;52.670;13.544;2023-07-31T03:32:46;18.60;68.40
21335;DHT22;69435;52.670;13.544;2023-07-31T03:35:32;18.60;68.50
21335;DHT22;69435;52.670;13.544;2023-07-31T03:38:19;18.60;68.60
21335;DHT22;69435;52.670;13.544;2023-07-31T03:41:05;18.60;68.60
21335;DHT22;69435;52.670;13.544;2023-07-31T03:43:51;18.60;68.60
21335;DHT22;69435;52.670;13.544;2023-07-31T03:46:38;18.60;68.60
21335;DHT22;69435;52.670;13.544;2023-07-31T03:49:23;18.60;68.60
21335;DHT22;69435;52.670;13.544;2023-07-31T03:52:09;18.60;68.40
21335;DHT22;69435;52.670;13.544;2023-07-31T03:54:55;18.60;68.40
21335;DHT22;69435;52.670;13.544;2023-07-31T03:57:42;18.60;68.50
21335;DHT22;69435;52.670;13.544;2023-07-31T04:00:29;18.60;68.50
21335;DHT22;69435;52.670;13.544;2023-07-31T04:03:15;18.60;68.60
21335;DHT22;69435;52.670;13.544;2023-07-31T04:06:01;18.60;68.40
21335;DHT22;69435;52.670;13.544;2023-07-31T04:08:47;18.60;68.30
21335;DHT22;69435;52.670;13.544;2023-07-31T04:11:33;18.60;68.30
21335;DHT22;69435;52.670;13.544;2023-07-31T04:14:19;18.60;68.20
21335;DHT22;69435;52.670;13.544;2023-07-31T04:17:05;18.60;68.20
21335;DHT22;69435;52.670;13.544;2023-07-31T04:19:51;18.60;68.20
21335;DHT22;69435;52.670;13.544;2023-07-31T04:22:37;18.70;68.20
21335;DHT22;69435;52.670;13.544;2023-07-31T04:25:23;18.70;68.30
21335;DHT22;69435;52.670;13.544;2023-07-31T04:28:09;18.70;68.40
21335;DHT22;69435;52.670;13.544;2023-07-31T04:30:55;18.70;68.40
21335;DHT22;69435;52.670;13.544;2023-07-31T04:33:41;18.70;68.20
21335;DHT22;69435;52.670;13.544;2023-07-31T04:36:27;18.70;68.30
21335;DHT22;69435;52.670;13.544;2023-07-31T04:39:13;18.70;68.20
21335;DHT22;69435;52.670;13.544;2023-07-31T04:41:59;18.60;68.20
21335;DHT22;69435;52.670;13.544;2023-07-31T04:44:45;18.70;68.30
21335;DHT22;69435;52.670;13.544;2023-07-31T04:47:31;18.60;68.00
21335;DHT22;69435;52.670;13.544;2023-07-31T04:50:17;18.60;68.10
21335;DHT22;69435;52.670;13.544;2023-07-31T04:53:03;18.60;68.20
21335;DHT22;69435;52.670;13.544;2023-07-31T04:55:49;18.70;68.50
21335;DHT22;69435;52.670;13.544;2023-07-31T04:58:35;18.70;68.40
21335;DHT22;69435;52.670;13.544;2023-07-31T05:01:21;18.70;68.30
21335;DHT22;69435;52.670;13.544;2023-07-31T05:04:07;18.70;68.10
21335;DHT22;69435;52.670;13.544;2023-07-31T05:06:53;18.70;68.00
21335;DHT22;69435;52.670;13.544;2023-07-31T05:09:39;18.70;68.10
21335;DHT22;69435;52.670;13.544;2023-07-31T05:12:25;18.70;68.10
21335;DHT22;69435;52.670;13.544;2023-07-31T05:15:11;18.60;68.20
21335;DHT22;69435;52.670;13.544;2023-07-31T05:17:57;18.60;68.30
21335;DHT22;69435;52.670;13.544;2023-07-31T05:20:43;18.60;68.40
21335;DHT22;69435;52.670;13.544;2023-07-31T05:23:29;18.60;68.40
21335;DHT22;69435;52.670;13.544;2023-07-31T05:26:17;18.60;68.50
21335;DHT22;69435;52.670;13.544;2023-07-31T05:29:03;18.60;68.70
21335;DHT22;69435;52.670;13.544;2023-07-31T05:31:49;18.60;68.70
21335;DHT22;69435;52.670;13.544;2023-07-31T05:34:35;18.60;68.80
21335;DHT22;69435;52.670;13.544;2023-07-31T05:37:21;18.70;68.80
21335;DHT22;69435;52.670;13.544;2023-07-31T05:40:08;18.70;68.90
21335;DHT22;69435;52.670;13.544;2023-07-31T05:42:54;18.70;69.00
21335;DHT22;69435;52.670;13.544;2023-07-31T05:45:41;18.80;69.20
21335;DHT22;69435;52.670;13.544;2023-07-31T05:48:28;18.80;69.10
21335;DHT22;69435;52.670;13.544;2023-07-31T05:51:14;18.80;69.00
21335;DHT22;69435;52.670;13.544;2023-07-31T05:54:00;18.90;68.80
21335;DHT22;69435;52.670;13.544;2023-07-31T05:56:46;18.90;68.80
21335;DHT22;69435;52.670;13.544;2023-07-31T05:59:32;18.90;68.80
21335;DHT22;69435;52.670;13.544;2023-07-31T06:02:18;19.00;68.80
21335;DHT22;69435;52.670;13.544;2023-07-31T06:05:06;19.00;68.90
21335;DHT22;69435;52.670;13.544;2023-07-31T06:07:52;19.10;68.80
21335;DHT22;69435;52.670;13.544;2023-07-31T06:10:38;19.10;68.60
21335;DHT22;69435;52.670;13.544;2023-07-31T06:13:24;19.10;68.40
21335;DHT22;69435;52.670;13.544;2023-07-31T06:16:10;19.20;68.30
21335;DHT22;69435;52.670;13.544;2023-07-31T06:18:56;19.20;68.40
21335;DHT22;69435;52.670;13.544;2023-07-31T06:21:42;19.30;68.50
21335;DHT22;69435;52.670;13.544;2023-07-31T06:24:30;19.40;68.70
21335;DHT22;69435;52.670;13.544;2023-07-31T06:27:16;19.40;68.50
21335;DHT22;69435;52.670;13.544;2023-07-31T06:30:02;19.50;68.20
21335;DHT22;69435;52.670;13.544;2023-07-31T06:32:48;19.50;67.80
21335;DHT22;69435;52.670;13.544;2023-07-31T06:35:34;19.50;68.40
21335;DHT22;69435;52.670;13.544;2023-07-31T06:38:27;19.60;68.40
21335;DHT22;69435;52.670;13.544;2023-07-31T06:41:13;19.70;68.30
21335;DHT22;69435;52.670;13.544;2023-07-31T06:43:59;19.70;67.90
21335;DHT22;69435;52.670;13.544;2023-07-31T06:46:45;19.70;68.20
21335;DHT22;69435;52.670;13.544;2023-07-31T06:49:31;19.80;68.00
21335;DHT22;69435;52.670;13.544;2023-07-31T06:52:17;19.80;68.00
21335;DHT22;69435;52.670;13.544;2023-07-31T06:55:17;19.80;67.70
21335;DHT22;69435;52.670;13.544;2023-07-31T06:58:05;19.70;67.60
21335;DHT22;69435;52.670;13.544;2023-07-31T07:00:51;19.70;68.30
21335;DHT22;69435;52.670;13.544;2023-07-31T07:03:37;19.70;68.00
21335;DHT22;69435;52.670;13.544;2023-07-31T07:06:23;19.70;67.90
21335;DHT22;69435;52.670;13.544;2023-07-31T07:09:09;19.70;68.00
21335;DHT22;69435;52.670;13.544;2023-07-31T07:11:55;19.70;68.30
21335;DHT22;69435;52.670;13.544;2023-07-31T07:14:41;19.70;68.20
21335;DHT22;69435;52.670;13.544;2023-07-31T07:17:29;19.70;68.20
21335;DHT22;69435;52.670;13.544;2023-07-31T07:20:18;19.80;68.30
21335;DHT22;69435;52.670;13.544;2023-07-31T07:23:05;19.80;68.50
21335;DHT22;69435;52.670;13.544;2023-07-31T07:25:51;19.80;68.10
21335;DHT22;69435;52.670;13.544;2023-07-31T07:28:38;19.80;67.60
21335;DHT22;69435;52.670;13.544;2023-07-31T07:31:24;19.80;67.90
21335;DHT22;69435;52.670;13.544;2023-07-31T07:34:10;19.70;68.10
21335;DHT22;69435;52.670;13.544;2023-07-31T07:36:56;19.70;68.20
21335;DHT22;69435;52.670;13.544;2023-07-31T07:39:42;19.70;68.20
21335;DHT22;69435;52.670;13.544;2023-07-31T07:42:29;19.70;68.50
21335;DHT22;69435;52.670;13.544;2023-07-31T07:45:15;19.70;68.40
21335;DHT22;69435;52.670;13.544;2023-07-31T07:48:02;19.70;68.50
21335;DHT22;69435;52.670;13.544;2023-07-31T07:50:49;19.80;68.60
21335;DHT22;69435;52.670;13.544;2023-07-31T07:53:35;19.80;68.60
21335;DHT22;69435;52.670;13.544;2023-07-31T07:56:20;19.90;68.70
21335;DHT22;69435;52.670;13.544;2023-07-31T07:59:07;19.90;68.70
21335;DHT22;69435;52.670;13.544;2023-07-31T08:01:52;19.90;68.90
21335;DHT22;69435;52.670;13.544;2023-07-31T08:04:39;19.90;68.60
21335;DHT22;69435;52.670;13.544;2023-07-31T08:07:25;19.90;68.90
21335;DHT22;69435;52.670;13.544;2023-07-31T08:10:11;20.00;69.30
21335;DHT22;69435;52.670;13.544;2023-07-31T08:12:57;20.20;69.40
21335;DHT22;69435;52.670;13.544;2023-07-31T08:15:43;20.30;69.30
21335;DHT22;69435;52.670;13.544;2023-07-31T08:18:31;20.40;68.00
21335;DHT22;69435;52.670;13.544;2023-07-31T08:21:17;20.50;67.80
21335;DHT22;69435;52.670;13.544;2023-07-31T08:24:03;20.60;66.60
21335;DHT22;69435;52.670;13.544;2023-07-31T08:26:49;20.50;65.80
21335;DHT22;69435;52.670;13.544;2023-07-31T08:29:36;20.40;66.10
21335;DHT22;69435;52.670;13.544;2023-07-31T08:32:22;20.30;66.90
21335;DHT22;69435;52.670;13.544;2023-07-31T08:35:08;20.30;67.20
21335;DHT22;69435;52.670;13.544;2023-07-31T08:37:54;20.40;67.30
21335;DHT22;69435;52.670;13.544;2023-07-31T08:40:40;20.30;67.00
21335;DHT22;69435;52.670;13.544;2023-07-31T08:43:27;20.30;66.80
21335;DHT22;69435;52.670;13.544;2023-07-31T08:46:14;20.20;66.50
21335;DHT22;69435;52.670;13.544;2023-07-31T08:49:00;20.10;66.80
21335;DHT22;69435;52.670;13.544;2023-07-31T08:51:52;20.10;67.50
21335;DHT22;69435;52.670;13.544;2023-07-31T08:54:40;20.00;68.40
21335;DHT22;69435;52.670;13.544;2023-07-31T08:57:27;20.10;68.40
21335;DHT22;69435;52.670;13.544;2023-07-31T09:00:14;20.10;68.60
21335;DHT22;69435;52.670;13.544;2023-07-31T09:03:06;20.10;68.20
21335;DHT22;69435;52.670;13.544;2023-07-31T09:05:56;20.20;68.20
21335;DHT22;69435;52.670;13.544;2023-07-31T09:08:44;20.10;68.60
21335;DHT22;69435;52.670;13.544;2023-07-31T09:11:31;20.30;69.10
21335;DHT22;69435;52.670;13.544;2023-07-31T09:14:17;20.20;68.80
21335;DHT22;69435;52.670;13.544;2023-07-31T09:17:04;20.20;68.10
21335;DHT22;69435;52.670;13.544;2023-07-31T09:19:51;20.20;68.70
21335;DHT22;69435;52.670;13.544;2023-07-31T09:22:37;20.20;69.30
21335;DHT22;69435;52.670;13.544;2023-07-31T09:25:26;20.30;67.70
21335;DHT22;69435;52.670;13.544;2023-07-31T09:28:12;20.30;68.20
21335;DHT22;69435;52.670;13.544;2023-07-31T09:30:58;20.30;68.00
21335;DHT22;69435;52.670;13.544;2023-07-31T09:33:54;20.30;67.50
21335;DHT22;69435;52.670;13.544;2023-07-31T09:36:42;20.40;67.50
21335;DHT22;69435;52.670;13.544;2023-07-31T09:39:47;20.30;66.90
21335;DHT22;69435;52.670;13.544;2023-07-31T09:42:34;20.20;67.50
21335;DHT22;69435;52.670;13.544;2023-07-31T09:45:20;20.20;68.80
21335;DHT22;69435;52.670;13.544;2023-07-31T09:48:25;20.30;68.80
21335;DHT22;69435;52.670;13.544;2023-07-31T09:51:13;20.30;67.80
21335;DHT22;69435;52.670;13.544;2023-07-31T09:54:00;20.30;67.90
21335;DHT22;69435;52.670;13.544;2023-07-31T09:56:48;20.30;68.30
21335;DHT22;69435;52.670;13.544;2023-07-31T09:59:34;20.30;68.60
21335;DHT22;69435;52.670;13.544;2023-07-31T10:02:22;20.30;68.80
21335;DHT22;69435;52.670;13.544;2023-07-31T10:05:08;20.30;68.60
21335;DHT22;69435;52.670;13.544;2023-07-31T10:07:55;20.20;68.80
21335;DHT22;69435;52.670;13.544;2023-07-31T10:10:44;20.20;69.30
21335;DHT22;69435;52.670;13.544;2023-07-31T10:13:32;20.20;69.30
21335;DHT22;69435;52.670;13.544;2023-07-31T10:16:19;20.20;69.40
21335;DHT22;69435;52.670;13.544;2023-07-31T10:19:07;20.20;70.00
21335;DHT22;69435;52.670;13.544;2023-07-31T10:21:54;20.30;69.90
21335;DHT22;69435;52.670;13.544;2023-07-31T10:24:42;20.40;69.60
21335;DHT22;69435;52.670;13.544;2023-07-31T10:27:43;20.60;69.40
21335;DHT22;69435;52.670;13.544;2023-07-31T10:30:33;20.80;68.90
21335;DHT22;69435;52.670;13.544;2023-07-31T10:33:21;21.00;67.70
21335;DHT22;69435;52.670;13.544;2023-07-31T10:36:16;21.00;67.50
21335;DHT22;69435;52.670;13.544;2023-07-31T10:39:04;21.00;66.40
21335;DHT22;69435;52.670;13.544;2023-07-31T10:41:50;20.90;66.70
21335;DHT22;69435;52.670;13.544;2023-07-31T10:44:37;20.90;67.50
21335;DHT22;69435;52.670;13.544;2023-07-31T10:47:23;20.90;67.60
21335;DHT22;69435;52.670;13.544;2023-07-31T10:50:15;20.80;66.90
21335;DHT22;69435;52.670;13.544;2023-07-31T10:53:05;20.80;67.30
21335;DHT22;69435;52.670;13.544;2023-07-31T10:55:53;20.70;67.60
21335;DHT22;69435;52.670;13.544;2023-07-31T10:58:44;20.60;68.20
21335;DHT22;69435;52.670;13.544;2023-07-31T11:01:51;20.50;69.00
21335;DHT22;69435;52.670;13.544;2023-07-31T11:04:44;20.60;69.10
21335;DHT22;69435;52.670;13.544;2023-07-31T11:07:46;20.70;69.40
21335;DHT22;69435;52.670;13.544;2023-07-31T11:10:34;20.90;69.60
21335;DHT22;69435;52.670;13.544;2023-07-31T11:13:20;20.90;69.20
21335;DHT22;69435;52.670;13.544;2023-07-31T11:16:07;21.10;68.90
21335;DHT22;69435;52.670;13.544;2023-07-31T11:18:53;21.30;69.00
21335;DHT22;69435;52.670;13.544;2023-07-31T11:21:41;21.60;69.30
21335;DHT22;69435;52.670;13.544;2023-07-31T11:24:28;22.10;67.80
21335;DHT22;69435;52.670;13.544;2023-07-31T11:27:15;22.50;65.80
21335;DHT22;69435;52.670;13.544;2023-07-31T11:30:01;22.90;64.20
21335;DHT22;69435;52.670;13.544;2023-07-31T11:32:49;23.20;62.50
21335;DHT22;69435;52.670;13.544;2023-07-31T11:35:42;23.40;61.60
21335;DHT22;69435;52.670;13.544;2023-07-31T11:38:33;23.40;61.10
21335;DHT22;69435;52.670;13.544;2023-07-31T11:41:19;23.50;61.20
21335;DHT22;69435;52.670;13.544;2023-07-31T11:44:05;23.50;61.40
21335;DHT22;69435;52.670;13.544;2023-07-31T11:46:51;23.60;60.60
21335;DHT22;69435;52.670;13.544;2023-07-31T11:49:37;23.60;60.20
21335;DHT22;69435;52.670;13.544;2023-07-31T11:52:25;23.70;59.20
21335;DHT22;69435;52.670;13.544;2023-07-31T11:55:12;23.70;59.60
21335;DHT22;69435;52.670;13.544;2023-07-31T11:58:00;23.70;59.80
21335;DHT22;69435;52.670;13.544;2023-07-31T12:00:47;23.90;58.30
21335;DHT22;69435;52.670;13.544;2023-07-31T12:03:35;24.10;57.30
21335;DHT22;69435;52.670;13.544;2023-07-31T12:06:21;24.20;55.20
21335;DHT22;69435;52.670;13.544;2023-07-31T12:09:07;24.10;55.70
21335;DHT22;69435;52.670;13.544;2023-07-31T12:11:53;23.90;54.30
21335;DHT22;69435;52.670;13.544;2023-07-31T12:14:41;23.70;54.20
21335;DHT22;69435;52.670;13.544;2023-07-31T12:17:28;23.40;53.90
21335;DHT22;69435;52.670;13.544;2023-07-31T12:20:14;23.20;54.40
21335;DHT22;69435;52.670;13.544;2023-07-31T12:23:01;23.10;55.30
21335;DHT22;69435;52.670;13.544;2023-07-31T12:26:20;23.10;56.10
21335;DHT22;69435;52.670;13.544;2023-07-31T12:29:07;23.10;56.00
21335;DHT22;69435;52.670;13.544;2023-07-31T12:31:54;23.20;55.80
21335;DHT22;69435;52.670;13.544;2023-07-31T12:34:43;23.20;55.70
21335;DHT22;69435;52.670;13.544;2023-07-31T12:37:29;23.20;56.10
21335;DHT22;69435;52.670;13.544;2023-07-31T12:40:15;22.90;57.40
21335;DHT22;69435;52.670;13.544;2023-07-31T12:43:01;22.70;59.00
21335;DHT22;69435;52.670;13.544;2023-07-31T12:45:49;22.50;60.30
21335;DHT22;69435;52.670;13.544;2023-07-31T12:48:36;22.40;61.30
21335;DHT22;69435;52.670;13.544;2023-07-31T12:51:23;22.40;61.10
21335;DHT22;69435;52.670;13.544;2023-07-31T12:54:09;22.40;61.70
21335;DHT22;69435;52.670;13.544;2023-07-31T12:56:55;22.40;60.90
21335;DHT22;69435;52.670;13.544;2023-07-31T12:59:41;22.40;61.50
21335;DHT22;69435;52.670;13.544;2023-07-31T13:02:27;22.20;62.60
21335;DHT22;69435;52.670;13.544;2023-07-31T13:05:13;22.10;62.90
21335;DHT22;69435;52.670;13.544;2023-07-31T13:08:00;22.00;63.70
21335;DHT22;69435;52.670;13.544;2023-07-31T13:10:46;22.00;63.40
21335;DHT22;69435;52.670;13.544;2023-07-31T13:13:32;22.00;63.50
21335;DHT22;69435;52.670;13.544;2023-07-31T13:16:18;21.90;64.10
21335;DHT22;69435;52.670;13.544;2023-07-31T13:19:04;21.90;64.90
21335;DHT22;69435;52.670;13.544;2023-07-31T13:21:50;21.80;65.00
21335;DHT22;69435;52.670;13.544;2023-07-31T13:24:36;21.90;65.90
21335;DHT22;69435;52.670;13.544;2023-07-31T13:27:23;21.90;66.40
21335;DHT22;69435;52.670;13.544;2023-07-31T13:30:10;22.00;65.90
21335;DHT22;69435;52.670;13.544;2023-07-31T13:32:56;22.10;65.60
21335;DHT22;69435;52.670;13.544;2023-07-31T13:35:42;22.30;65.00
21335;DHT22;69435;52.670;13.544;2023-07-31T13:38:28;22.20;64.80
21335;DHT22;69435;52.670;13.544;2023-07-31T13:41:14;22.20;65.30
21335;DHT22;69435;52.670;13.544;2023-07-31T13:44:00;22.10;66.00
21335;DHT22;69435;52.670;13.544;2023-07-31T13:46:46;22.20;67.10
21335;DHT22;69435;52.670;13.544;2023-07-31T13:49:32;22.30;66.80
21335;DHT22;69435;52.670;13.544;2023-07-31T13:52:18;22.50;67.00
21335;DHT22;69435;52.670;13.544;2023-07-31T13:55:04;22.80;66.40
21335;DHT22;69435;52.670;13.544;2023-07-31T13:57:51;23.10;64.80
21335;DHT22;69435;52.670;13.544;2023-07-31T14:00:39;23.30;62.70
21335;DHT22;69435;52.670;13.544;2023-07-31T14:03:25;23.40;61.70
21335;DHT22;69435;52.670;13.544;2023-07-31T14:06:11;23.50;62.40
21335;DHT22;69435;52.670;13.544;2023-07-31T14:08:57;23.50;61.80
21335;DHT22;69435;52.670;13.544;2023-07-31T14:11:43;23.60;61.80
21335;DHT22;69435;52.670;13.544;2023-07-31T14:14:28;23.60;60.40
21335;DHT22;69435;52.670;13.544;2023-07-31T14:17:15;23.60;60.40
21335;DHT22;69435;52.670;13.544;2023-07-31T14:20:02;23.70;60.80
21335;DHT22;69435;52.670;13.544;2023-07-31T14:22:48;23.80;60.60
21335;DHT22;69435;52.670;13.544;2023-07-31T14:25:34;24.00;61.10
21335;DHT22;69435;52.670;13.544;2023-07-31T14:28:20;24.00;60.60
21335;DHT22;69435;52.670;13.544;2023-07-31T14:31:06;24.10;58.90
21335;DHT22;69435;52.670;13.544;2023-07-31T14:33:52;24.10;56.30
21335;DHT22;69435;52.670;13.544;2023-07-31T14:36:38;23.90;56.50
21335;DHT22;69435;52.670;13.544;2023-07-31T14:39:24;23.70;56.70
21335;DHT22;69435;52.670;13.544;2023-07-31T14:42:10;23.60;57.70
21335;DHT22;69435;52.670;13.544;2023-07-31T14:44:56;23.60;57.90
21335;DHT22;69435;52.670;13.544;2023-07-31T14:47:42;23.60;57.90
21335;DHT22;69435;52.670;13.544;2023-07-31T14:50:28;23.50;57.00
21335;DHT22;69435;52.670;13.544;2023-07-31T14:53:14;23.60;57.50
21335;DHT22;69435;52.670;13.544;2023-07-31T14:56:00;23.60;56.70
21335;DHT22;69435;52.670;13.544;2023-07-31T14:58:46;23.50;55.70
21335;DHT22;69435;52.670;13.544;2023-07-31T15:01:33;23.50;55.70
21335;DHT22;69435;52.670;13.544;2023-07-31T15:04:19;23.40;55.80
21335;DHT22;69435;52.670;13.544;2023-07-31T15:07:07;23.30;56.60
21335;DHT22;69435;52.670;13.544;2023-07-31T15:09:53;23.30;56.90
21335;DHT22;69435;52.670;13.544;2023-07-31T15:12:59;23.30;56.60
21335;DHT22;69435;52.670;13.544;2023-07-31T15:15:46;23.20;56.40
21335;DHT22;69435;52.670;13.544;2023-07-31T15:18:32;23.20;57.10
21335;DHT22;69435;52.670;13.544;2023-07-31T15:21:18;23.10;56.30
21335;DHT22;69435;52.670;13.544;2023-07-31T15:24:04;23.10;56.80
21335;DHT22;69435;52.670;13.544;2023-07-31T15:26:50;23.10;56.50
21335;DHT22;69435;52.670;13.544;2023-07-31T15:29:36;23.10;56.40
21335;DHT22;69435;52.670;13.544;2023-07-31T15:32:23;23.20;55.80
21335;DHT22;69435;52.670;13.544;2023-07-31T15:35:09;23.20;56.00
21335;DHT22;69435;52.670;13.544;2023-07-31T15:37:55;23.20;55.60
21335;DHT22;69435;52.670;13.544;2023-07-31T15:40:41;23.30;55.60
21335;DHT22;69435;52.670;13.544;2023-07-31T15:43:27;23.40;55.70
21335;DHT22;69435;52.670;13.544;2023-07-31T15:46:15;23.50;54.60
21335;DHT22;69435;52.670;13.544;2023-07-31T15:49:01;23.60;53.90
21335;DHT22;69435;52.670;13.544;2023-07-31T15:51:47;23.60;53.60
21335;DHT22;69435;52.670;13.544;2023-07-31T15:54:33;23.60;53.30
21335;DHT22;69435;52.670;13.544;2023-07-31T15:57:19;23.50;53.30
21335;DHT22;69435;52.670;13.544;2023-07-31T16:00:05;23.50;53.90
21335;DHT22;69435;52.670;13.544;2023-07-31T16:02:54;23.50;54.00
21335;DHT22;69435;52.670;13.544;2023-07-31T16:05:40;23.40;53.60
21335;DHT22;69435;52.670;13.544;2023-07-31T16:08:26;23.30;54.00
21335;DHT22;69435;52.670;13.544;2023-07-31T16:11:12;23.30;54.00
21335;DHT22;69435;52.670;13.544;2023-07-31T16:13:58;23.20;53.40
21335;DHT22;69435;52.670;13.544;2023-07-31T16:16:45;23.20;53.40
21335;DHT22;69435;52.670;13.544;2023-07-31T16:19:32;23.10;53.50
21335;DHT22;69435;52.670;13.544;2023-07-31T16:22:18;23.00;53.80
21335;DHT22;69435;52.670;13.544;2023-07-31T16:25:04;22.90;54.50
21335;DHT22;69435;52.670;13.544;2023-07-31T16:27:50;23.00;54.60
21335;DHT22;69435;52.670;13.544;2023-07-31T16:30:36;22.90;54.60
21335;DHT22;69435;52.670;13.544;2023-07-31T16:33:23;23.00;55.60
21335;DHT22;69435;52.670;13.544;2023-07-31T16:36:09;23.00;55.30
21335;DHT22;69435;52.670;13.544;2023-07-31T16:38:55;23.00;55.40
21335;DHT22;69435;52.670;13.544;2023-07-31T16:41:41;23.00;56.20
21335;DHT22;69435;52.670;13.544;2023-07-31T16:44:27;23.10;56.00
21335;DHT22;69435;52.670;13.544;2023-07-31T16:47:13;23.10;56.10
21335;DHT22;69435;52.670;13.544;2023-07-31T16:50:00;23.00;55.50
21335;DHT22;69435;52.670;13.544;2023-07-31T16:52:46;22.90;55.40
21335;DHT22;69435;52.670;13.544;2023-07-31T16:55:32;22.90;55.20
21335;DHT22;69435;52.670;13.544;2023-07-31T16:58:19;22.80;55.40
21335;DHT22;69435;52.670;13.544;2023-07-31T17:01:05;22.80;55.40
21335;DHT22;69435;52.670;13.544;2023-07-31T17:03:51;22.80;55.70
21335;DHT22;69435;52.670;13.544;2023-07-31T17:06:37;22.90;55.60
21335;DHT22;69435;52.670;13.544;2023-07-31T17:09:24;22.90;55.80
21335;DHT22;69435;52.670;13.544;2023-07-31T17:12:12;22.90;55.70
21335;DHT22;69435;52.670;13.544;2023-07-31T17:14:58;22.90;55.50
21335;DHT22;69435;52.670;13.544;2023-07-31T17:17:44;23.00;55.30
21335;DHT22;69435;52.670;13.544;2023-07-31T17:20:30;23.00;55.30
21335;DHT22;69435;52.670;13.544;2023-07-31T17:23:19;23.00;55.10